Terminal Aerodrome Forecast
Issued by NWS

Home | Current Version | Previous Version | Text Only | Print | Product List | Glossary On
Versions: 1 2 3 4 5 6 7 8 9 10 11 12 13 14 15 16 17 18
000
FTUS46 KLOX 051700
TAFSBA
TAF
KSBA 051736Z 0518/0618 14003KT P6SM OVC035
     FM051900 23008KT P6SM BKN035
     FM052300 25010KT P6SM SCT035
     FM060200 VRB03KT P6SM SCT030
     FM060700 07003KT P6SM BKN020
     FM061000 11003KT P6SM OVC020=

USA.gov is the U.S. government's official web portal to all federal, state and local government web resources and services.